Time,TemperatureF,DewpointF,PressureIn,WindDirection,WindDirectionDegrees,WindSpeedMPH,WindSpeedGustMPH,Humidity,HourlyPrecipIn,Conditions,Clouds,dailyrainin,SoftwareType,DateUTC
2013-02-09 00:11:00,24.3,18.4,29.88,West,270,5.8,-999.0,78,-99.99,,,0.00,Acu-Link.com,2013-02-09 05:11:00,
2013-02-09 00:26:00,24.1,18.8,29.88,WSW,247,2.2,-999.0,80,-99.99,,,0.00,Acu-Link.com,2013-02-09 05:26:00,
2013-02-09 00:41:00,23.9,18.1,29.88,WNW,292,5.3,-999.0,78,-99.99,,,0.00,Acu-Link.com,2013-02-09 05:41:00,
2013-02-09 00:56:00,23.7,18.2,29.89,West,270,4.7,-999.0,79,-99.99,,,0.00,Acu-Link.com,2013-02-09 05:56:00,
2013-02-09 01:11:00,23.4,17.9,29.89,WNW,292,3.2,-999.0,79,-99.99,,,0.00,Acu-Link.com,2013-02-09 06:11:00,
2013-02-09 01:27:00,23.2,17.4,29.90,West,270,7.8,-999.0,78,-99.99,,,0.00,Acu-Link.com,2013-02-09 06:27:00,
2013-02-09 01:42:00,23.0,16.6,29.91,ESE,112,6.8,-999.0,76,-99.99,,,0.00,Acu-Link.com,2013-02-09 06:42:00,
2013-02-09 01:57:00,23.0,16.3,29.92,West,270,5.8,-999.0,75,-99.99,,,0.00,Acu-Link.com,2013-02-09 06:57:00,
2013-02-09 02:12:00,22.8,16.1,29.93,WSW,247,5.3,-999.0,75,-99.99,,,0.00,Acu-Link.com,2013-02-09 07:12:00,
2013-02-09 02:27:00,22.8,16.1,29.94,SW,225,4.2,-999.0,75,-99.99,,,0.00,Acu-Link.com,2013-02-09 07:27:00,
2013-02-09 02:42:00,22.6,15.9,29.94,SW,225,3.2,-999.0,75,-99.99,,,0.00,Acu-Link.com,2013-02-09 07:42:00,
2013-02-09 02:57:00,22.5,16.1,29.95,SSW,202,2.7,-999.0,76,-99.99,,,0.00,Acu-Link.com,2013-02-09 07:57:00,
2013-02-09 03:12:00,22.3,16.2,29.95,WNW,292,3.7,-999.0,77,-99.99,,,0.00,Acu-Link.com,2013-02-09 08:12:00,
2013-02-09 03:27:00,22.1,15.7,29.96,SW,225,4.7,-999.0,76,-99.99,,,0.00,Acu-Link.com,2013-02-09 08:27:00,
2013-02-09 03:43:00,21.9,14.9,29.97,WSW,247,2.7,-999.0,74,-99.99,,,0.00,Acu-Link.com,2013-02-09 08:43:00,
2013-02-09 03:58:00,21.7,14.4,29.99,WSW,247,6.8,-999.0,73,-99.99,,,0.00,Acu-Link.com,2013-02-09 08:58:00,
2013-02-09 04:13:00,21.4,14.1,30.00,WNW,292,4.2,-999.0,73,-99.99,,,0.00,Acu-Link.com,2013-02-09 09:13:00,
2013-02-09 04:28:00,21.2,13.9,30.01,SW,225,6.8,-999.0,73,-99.99,,,0.00,Acu-Link.com,2013-02-09 09:28:00,
2013-02-09 04:43:00,21.2,14.2,30.02,West,270,10.4,-999.0,74,-99.99,,,0.00,Acu-Link.com,2013-02-09 09:43:00,
2013-02-09 04:58:00,20.8,14.1,30.02,South,180,2.2,-999.0,75,-99.99,,,0.00,Acu-Link.com,2013-02-09 09:58:00,
2013-02-09 05:13:00,20.8,14.1,30.03,WNW,292,3.7,-999.0,75,-99.99,,,0.00,Acu-Link.com,2013-02-09 10:13:00,
2013-02-09 05:28:00,20.7,14.1,30.04,West,270,1.1,-999.0,75,-99.99,,,0.00,Acu-Link.com,2013-02-09 10:28:00,
2013-02-09 05:43:00,20.5,13.6,30.05,West,270,4.2,-999.0,74,-99.99,,,0.00,Acu-Link.com,2013-02-09 10:43:00,
2013-02-09 05:59:00,20.7,13.7,30.05,WNW,292,2.7,-999.0,74,-99.99,,,0.00,Acu-Link.com,2013-02-09 10:59:00,
2013-02-09 06:14:00,20.8,13.8,30.06,SW,225,6.8,-999.0,74,-99.99,,,0.00,Acu-Link.com,2013-02-09 11:14:00,
2013-02-09 06:29:00,21.2,14.2,30.07,West,270,3.2,-999.0,74,-99.99,,,0.00,Acu-Link.com,2013-02-09 11:29:00,
2013-02-09 06:44:00,21.2,14.2,30.08,South,180,3.7,-999.0,74,-99.99,,,0.00,Acu-Link.com,2013-02-09 11:44:00,
2013-02-09 06:59:00,21.2,14.5,30.09,SW,225,5.3,-999.0,75,-99.99,,,0.00,Acu-Link.com,2013-02-09 11:59:00,
2013-02-09 07:14:00,21.2,14.5,30.10,NNW,337,3.7,-999.0,75,-99.99,,,0.00,Acu-Link.com,2013-02-09 12:14:00,
2013-02-09 07:29:00,21.4,14.7,30.11,NNW,337,3.2,-999.0,75,-99.99,,,0.00,Acu-Link.com,2013-02-09 12:29:00,
2013-02-09 07:44:00,21.6,14.9,30.11,NW,315,5.3,-999.0,75,-99.99,,,0.00,Acu-Link.com,2013-02-09 12:44:00,
2013-02-09 07:59:00,22.3,15.6,30.12,SW,225,3.7,-999.0,75,-99.99,,,0.00,Acu-Link.com,2013-02-09 12:59:00,
2013-02-09 08:15:00,22.8,16.1,30.12,SW,225,2.7,-999.0,75,-99.99,,,0.00,Acu-Link.com,2013-02-09 13:15:00,
2013-02-09 08:30:00,23.7,17.0,30.12,SSW,202,2.7,-999.0,75,-99.99,,,0.00,Acu-Link.com,2013-02-09 13:30:00,
2013-02-09 08:45:00,24.4,17.0,30.13,West,270,4.7,-999.0,73,-99.99,,,0.00,Acu-Link.com,2013-02-09 13:45:00,
2013-02-09 09:00:00,24.4,17.0,30.13,NE,45,4.2,-999.0,73,-99.99,,,0.00,Acu-Link.com,2013-02-09 14:00:00,
2013-02-09 09:15:00,25.3,17.6,30.14,NW,315,3.7,-999.0,72,-99.99,,,0.00,Acu-Link.com,2013-02-09 14:15:00,
2013-02-09 09:30:00,26.4,18.3,30.14,West,270,6.3,-999.0,71,-99.99,,,0.00,Acu-Link.com,2013-02-09 14:30:00,
2013-02-09 09:45:00,26.4,17.6,30.15,West,270,5.8,-999.0,69,-99.99,,,0.00,Acu-Link.com,2013-02-09 14:45:00,
2013-02-09 10:00:00,27.0,18.5,30.15,West,270,6.3,-999.0,70,-99.99,,,0.00,Acu-Link.com,2013-02-09 15:00:00,
2013-02-09 10:15:00,27.5,18.7,30.15,NNW,337,3.2,-999.0,69,-99.99,,,0.00,Acu-Link.com,2013-02-09 15:15:00,
2013-02-09 10:31:00,27.9,18.7,30.16,WSW,247,5.8,-999.0,68,-99.99,,,0.00,Acu-Link.com,2013-02-09 15:31:00,
2013-02-09 10:46:00,29.1,19.9,30.16,NE,45,4.2,-999.0,68,-99.99,,,0.00,Acu-Link.com,2013-02-09 15:46:00,
2013-02-09 11:01:00,29.3,20.1,30.16,WNW,292,2.2,-999.0,68,-99.99,,,0.00,Acu-Link.com,2013-02-09 16:01:00,
2013-02-09 11:16:00,30.6,20.3,30.16,NNW,337,5.8,-999.0,65,-99.99,,,0.00,Acu-Link.com,2013-02-09 16:16:00,
2013-02-09 11:31:00,30.7,20.0,30.16,West,270,6.3,-999.0,64,-99.99,,,0.00,Acu-Link.com,2013-02-09 16:31:00,
2013-02-09 11:46:00,30.6,19.9,30.17,West,270,4.2,-999.0,64,-99.99,,,0.00,Acu-Link.com,2013-02-09 16:46:00,
2013-02-09 12:02:00,29.7,19.4,30.18,NW,315,3.2,-999.0,65,-99.99,,,0.00,Acu-Link.com,2013-02-09 17:02:00,
2013-02-09 12:17:00,30.0,19.3,30.16,West,270,4.7,-999.0,64,-99.99,,,0.00,Acu-Link.com,2013-02-09 17:17:00,
2013-02-09 12:32:00,33.3,22.1,30.15,NNE,22,2.2,-999.0,63,-99.99,,,0.00,Acu-Link.com,2013-02-09 17:32:00,
2013-02-09 12:47:00,33.1,21.9,30.16,NW,315,3.2,-999.0,63,-99.99,,,0.00,Acu-Link.com,2013-02-09 17:47:00,
2013-02-09 13:02:00,33.3,21.7,30.15,North,0,3.7,-999.0,62,-99.99,,,0.00,Acu-Link.com,2013-02-09 18:02:00,
2013-02-09 13:17:00,34.0,22.0,30.15,West,270,5.3,-999.0,61,-99.99,,,0.01,Acu-Link.com,2013-02-09 18:17:00,
2013-02-09 13:32:00,33.6,22.0,30.15,WNW,292,3.7,-999.0,62,-99.99,,,0.01,Acu-Link.com,2013-02-09 18:32:00,
2013-02-09 13:47:00,33.8,22.2,30.15,NW,315,6.8,-999.0,62,-99.99,,,0.01,Acu-Link.com,2013-02-09 18:47:00,
2013-02-09 14:02:00,34.9,22.8,30.15,NNW,337,5.3,-999.0,61,-99.99,,,0.01,Acu-Link.com,2013-02-09 19:02:00,
2013-02-09 14:18:00,35.1,23.4,30.16,ENE,67,3.2,-999.0,62,-99.99,,,0.01,Acu-Link.com,2013-02-09 19:18:00,
2013-02-09 14:33:00,34.7,22.3,30.16,WNW,292,4.2,-999.0,60,-99.99,,,0.01,Acu-Link.com,2013-02-09 19:33:00,
2013-02-09 14:48:00,33.8,21.4,30.17,West,270,5.3,-999.0,60,-99.99,,,0.01,Acu-Link.com,2013-02-09 19:48:00,
2013-02-09 15:03:00,34.2,21.4,30.17,NW,315,6.8,-999.0,59,-99.99,,,0.01,Acu-Link.com,2013-02-09 20:03:00,
2013-02-09 15:18:00,33.8,21.0,30.17,West,270,4.7,-999.0,59,-99.99,,,0.01,Acu-Link.com,2013-02-09 20:18:00,
2013-02-09 15:33:00,33.4,20.2,30.18,WNW,292,3.2,-999.0,58,-99.99,,,0.01,Acu-Link.com,2013-02-09 20:33:00,
2013-02-09 15:48:00,33.8,20.6,30.18,NNW,337,2.7,-999.0,58,-99.99,,,0.01,Acu-Link.com,2013-02-09 20:48:00,
2013-02-09 16:03:00,34.0,21.2,30.19,NNW,337,4.7,-999.0,59,-99.99,,,0.01,Acu-Link.com,2013-02-09 21:03:00,
2013-02-09 16:18:00,33.4,20.2,30.18,North,0,2.2,-999.0,58,-99.99,,,0.01,Acu-Link.com,2013-02-09 21:18:00,
2013-02-09 16:34:00,34.5,20.9,30.19,North,0,3.2,-999.0,57,-99.99,,,0.01,Acu-Link.com,2013-02-09 21:34:00,
2013-02-09 16:49:00,32.7,19.6,30.19,West,270,3.2,-999.0,58,-99.99,,,0.01,Acu-Link.com,2013-02-09 21:49:00,
2013-02-09 17:04:00,31.5,19.2,30.19,ENE,67,1.1,-999.0,60,-99.99,,,0.01,Acu-Link.com,2013-02-09 22:04:00,
2013-02-09 17:19:00,30.7,18.5,30.20,North,0,2.7,-999.0,60,-99.99,,,0.01,Acu-Link.com,2013-02-09 22:19:00,
2013-02-09 17:34:00,29.5,18.1,30.19,West,270,1.1,-999.0,62,-99.99,,,0.01,Acu-Link.com,2013-02-09 22:34:00,
2013-02-09 17:49:00,28.4,18.2,30.19,North,0,1.7,-999.0,65,-99.99,,,0.01,Acu-Link.com,2013-02-09 22:49:00,
2013-02-09 18:04:00,27.3,18.5,30.21,West,270,1.1,-999.0,69,-99.99,,,0.01,Acu-Link.com,2013-02-09 23:04:00,
2013-02-09 18:19:00,25.9,18.1,30.22,North,0,0.0,-999.0,72,-99.99,,,0.01,Acu-Link.com,2013-02-09 23:19:00,
2013-02-09 18:34:00,25.0,18.2,30.23,NNW,337,0.0,-999.0,75,-99.99,,,0.01,Acu-Link.com,2013-02-09 23:34:00,
2013-02-09 18:50:00,24.4,17.9,30.24,West,270,2.2,-999.0,76,-99.99,,,0.01,Acu-Link.com,2013-02-09 23:50:00,
2013-02-09 19:05:00,24.4,17.6,30.25,West,270,0.0,-999.0,75,-99.99,,,0.01,Acu-Link.com,2013-02-10 00:05:00,
2013-02-09 19:20:00,23.9,18.6,30.24,WNW,292,0.0,-999.0,80,-99.99,,,0.01,Acu-Link.com,2013-02-10 00:20:00,
2013-02-09 19:35:00,22.8,17.6,30.25,ESE,112,0.0,-999.0,80,-99.99,,,0.01,Acu-Link.com,2013-02-10 00:35:00,
2013-02-09 19:50:00,21.6,17.3,30.25,WNW,292,0.0,-999.0,83,-99.99,,,0.01,Acu-Link.com,2013-02-10 00:50:00,
2013-02-09 20:05:00,20.8,17.6,30.25,West,270,0.0,-999.0,87,-99.99,,,0.01,Acu-Link.com,2013-02-10 01:05:00,
2013-02-09 20:20:00,20.1,17.1,30.26,West,270,0.0,-999.0,88,-99.99,,,0.01,Acu-Link.com,2013-02-10 01:20:00,
2013-02-09 20:35:00,19.6,16.6,30.26,NNE,22,0.0,-999.0,88,-99.99,,,0.01,Acu-Link.com,2013-02-10 01:35:00,
2013-02-09 20:50:00,19.2,16.8,30.27,ENE,67,0.0,-999.0,90,-99.99,,,0.01,Acu-Link.com,2013-02-10 01:50:00,
2013-02-09 21:06:00,18.7,17.0,30.27,ESE,112,0.0,-999.0,93,-99.99,,,0.01,Acu-Link.com,2013-02-10 02:06:00,
2013-02-09 21:21:00,18.7,17.0,30.28,ESE,112,0.0,-999.0,93,-99.99,,,0.01,Acu-Link.com,2013-02-10 02:21:00,
2013-02-09 21:36:00,18.5,16.8,30.28,ESE,112,0.0,-999.0,93,-99.99,,,0.01,Acu-Link.com,2013-02-10 02:36:00,
2013-02-09 21:51:00,17.8,15.6,30.29,North,0,0.0,-999.0,91,-99.99,,,0.01,Acu-Link.com,2013-02-10 02:51:00,
2013-02-09 22:06:00,17.1,14.4,30.30,NW,315,0.0,-999.0,89,-99.99,,,0.01,Acu-Link.com,2013-02-10 03:06:00,
2013-02-09 22:21:00,16.5,14.1,30.30,SE,135,0.0,-999.0,90,-99.99,,,0.01,Acu-Link.com,2013-02-10 03:21:00,
2013-02-09 22:36:00,16.7,14.8,30.30,SSW,202,0.0,-999.0,92,-99.99,,,0.01,Acu-Link.com,2013-02-10 03:36:00,
2013-02-09 22:51:00,16.2,14.0,30.30,NNE,22,0.0,-999.0,91,-99.99,,,0.01,Acu-Link.com,2013-02-10 03:51:00,
2013-02-09 23:06:00,16.0,14.3,30.31,NNW,337,0.0,-999.0,93,-99.99,,,0.01,Acu-Link.com,2013-02-10 04:06:00,
2013-02-09 23:21:00,15.6,13.5,30.31,SSW,202,0.0,-999.0,91,-99.99,,,0.01,Acu-Link.com,2013-02-10 04:21:00,
2013-02-09 23:37:00,15.1,13.2,30.32,WSW,247,0.0,-999.0,92,-99.99,,,0.01,Acu-Link.com,2013-02-10 04:37:00,
2013-02-09 23:52:00,15.1,13.2,30.32,North,0,0.0,-999.0,92,-99.99,,,0.01,Acu-Link.com,2013-02-10 04:52:00,